sensor_id;sensor_type;location;lat;lon;timestamp;temperature;humidity
74869;DHT22;63419;42.262;12.210;2023-07-31T00:02:10;19.00;99.90
74869;DHT22;63419;42.262;12.210;2023-07-31T00:04:36;19.10;99.90
74869;DHT22;63419;42.262;12.210;2023-07-31T00:07:02;19.30;99.90
74869;DHT22;63419;42.262;12.210;2023-07-31T00:09:29;19.40;99.90
74869;DHT22;63419;42.262;12.210;2023-07-31T00:11:56;19.50;99.90
74869;DHT22;63419;42.262;12.210;2023-07-31T00:14:22;19.50;99.90
74869;DHT22;63419;42.262;12.210;2023-07-31T00:16:48;19.40;99.90
74869;DHT22;63419;42.262;12.210;2023-07-31T00:19:14;19.50;99.90
74869;DHT22;63419;42.262;12.210;2023-07-31T00:21:40;19.60;99.90
74869;DHT22;63419;42.262;12.210;2023-07-31T00:24:06;19.80;99.90
74869;DHT22;63419;42.262;12.210;2023-07-31T00:26:32;19.90;99.90
74869;DHT22;63419;42.262;12.210;2023-07-31T00:28:59;19.90;99.90
74869;DHT22;63419;42.262;12.210;2023-07-31T00:31:25;19.90;99.90
74869;DHT22;63419;42.262;12.210;2023-07-31T00:33:51;20.00;99.90
74869;DHT22;63419;42.262;12.210;2023-07-31T00:36:16;20.10;99.90
74869;DHT22;63419;42.262;12.210;2023-07-31T00:38:43;20.10;99.90
74869;DHT22;63419;42.262;12.210;2023-07-31T00:41:09;20.10;99.90
74869;DHT22;63419;42.262;12.210;2023-07-31T00:43:35;20.20;99.90
74869;DHT22;63419;42.262;12.210;2023-07-31T00:46:01;20.20;99.90
74869;DHT22;63419;42.262;12.210;2023-07-31T00:48:28;20.30;99.90
74869;DHT22;63419;42.262;12.210;2023-07-31T00:50:54;20.30;99.90
74869;DHT22;63419;42.262;12.210;2023-07-31T00:53:20;20.30;99.90
74869;DHT22;63419;42.262;12.210;2023-07-31T00:55:47;20.30;99.90
74869;DHT22;63419;42.262;12.210;2023-07-31T00:58:13;20.30;99.90
74869;DHT22;63419;42.262;12.210;2023-07-31T01:00:39;20.30;99.90
74869;DHT22;63419;42.262;12.210;2023-07-31T01:03:06;20.20;99.90
74869;DHT22;63419;42.262;12.210;2023-07-31T01:06:06;20.20;99.90
74869;DHT22;63419;42.262;12.210;2023-07-31T01:08:41;20.20;99.90
74869;DHT22;63419;42.262;12.210;2023-07-31T01:11:17;20.10;99.90
74869;DHT22;63419;42.262;12.210;2023-07-31T01:13:54;20.10;99.90
74869;DHT22;63419;42.262;12.210;2023-07-31T01:16:21;20.10;99.90
74869;DHT22;63419;42.262;12.210;2023-07-31T01:18:47;20.10;99.90
74869;DHT22;63419;42.262;12.210;2023-07-31T01:27:20;19.80;99.90
74869;DHT22;63419;42.262;12.210;2023-07-31T01:32:39;19.90;99.90
74869;DHT22;63419;42.262;12.210;2023-07-31T01:35:08;20.00;99.90
74869;DHT22;63419;42.262;12.210;2023-07-31T01:37:34;20.00;99.90
74869;DHT22;63419;42.262;12.210;2023-07-31T01:40:01;20.00;99.90
74869;DHT22;63419;42.262;12.210;2023-07-31T01:42:27;20.00;99.90
74869;DHT22;63419;42.262;12.210;2023-07-31T01:44:53;19.90;99.90
74869;DHT22;63419;42.262;12.210;2023-07-31T01:47:19;19.80;99.90
74869;DHT22;63419;42.262;12.210;2023-07-31T01:49:45;19.90;99.90
74869;DHT22;63419;42.262;12.210;2023-07-31T01:52:11;20.00;99.90
74869;DHT22;63419;42.262;12.210;2023-07-31T01:54:37;19.90;99.90
74869;DHT22;63419;42.262;12.210;2023-07-31T01:57:03;19.90;99.90
74869;DHT22;63419;42.262;12.210;2023-07-31T01:59:29;19.80;99.90
74869;DHT22;63419;42.262;12.210;2023-07-31T02:01:55;19.10;99.90
74869;DHT22;63419;42.262;12.210;2023-07-31T02:04:21;19.00;99.90
74869;DHT22;63419;42.262;12.210;2023-07-31T02:06:47;19.10;99.90
74869;DHT22;63419;42.262;12.210;2023-07-31T02:09:13;19.20;99.90
74869;DHT22;63419;42.262;12.210;2023-07-31T02:11:40;19.30;99.90
74869;DHT22;63419;42.262;12.210;2023-07-31T02:14:06;19.40;99.90
74869;DHT22;63419;42.262;12.210;2023-07-31T02:16:32;19.50;99.90
74869;DHT22;63419;42.262;12.210;2023-07-31T02:18:58;19.60;99.90
74869;DHT22;63419;42.262;12.210;2023-07-31T02:21:24;19.70;99.90
74869;DHT22;63419;42.262;12.210;2023-07-31T02:23:50;19.70;99.90
74869;DHT22;63419;42.262;12.210;2023-07-31T02:26:17;19.70;99.90
74869;DHT22;63419;42.262;12.210;2023-07-31T02:28:43;19.40;99.90
74869;DHT22;63419;42.262;12.210;2023-07-31T02:31:09;19.10;99.90
74869;DHT22;63419;42.262;12.210;2023-07-31T02:33:35;19.10;99.90
74869;DHT22;63419;42.262;12.210;2023-07-31T02:36:02;19.10;99.90
74869;DHT22;63419;42.262;12.210;2023-07-31T02:38:28;19.00;99.90
74869;DHT22;63419;42.262;12.210;2023-07-31T02:40:54;19.10;99.90
74869;DHT22;63419;42.262;12.210;2023-07-31T02:43:20;19.10;99.90
74869;DHT22;63419;42.262;12.210;2023-07-31T02:45:53;19.20;99.90
74869;DHT22;63419;42.262;12.210;2023-07-31T02:48:19;19.30;99.90
74869;DHT22;63419;42.262;12.210;2023-07-31T02:50:46;19.30;99.90
74869;DHT22;63419;42.262;12.210;2023-07-31T02:53:13;19.30;99.90
74869;DHT22;63419;42.262;12.210;2023-07-31T02:55:40;19.60;99.90
74869;DHT22;63419;42.262;12.210;2023-07-31T02:58:07;19.80;99.90
74869;DHT22;63419;42.262;12.210;2023-07-31T03:00:33;20.10;99.90
74869;DHT22;63419;42.262;12.210;2023-07-31T03:02:59;20.30;99.90
74869;DHT22;63419;42.262;12.210;2023-07-31T03:05:25;20.40;99.90
74869;DHT22;63419;42.262;12.210;2023-07-31T03:07:51;20.60;99.90
74869;DHT22;63419;42.262;12.210;2023-07-31T03:10:17;20.70;99.90
74869;DHT22;63419;42.262;12.210;2023-07-31T03:12:47;20.80;99.90
74869;DHT22;63419;42.262;12.210;2023-07-31T03:15:14;20.90;99.90
74869;DHT22;63419;42.262;12.210;2023-07-31T03:17:40;21.00;99.90
74869;DHT22;63419;42.262;12.210;2023-07-31T03:20:07;20.90;99.90
74869;DHT22;63419;42.262;12.210;2023-07-31T03:22:34;20.90;99.90
74869;DHT22;63419;42.262;12.210;2023-07-31T03:25:02;21.00;99.90
74869;DHT22;63419;42.262;12.210;2023-07-31T03:27:29;20.90;99.90
74869;DHT22;63419;42.262;12.210;2023-07-31T03:29:55;20.80;99.90
74869;DHT22;63419;42.262;12.210;2023-07-31T03:32:21;20.30;99.90
74869;DHT22;63419;42.262;12.210;2023-07-31T03:34:47;20.40;99.90
74869;DHT22;63419;42.262;12.210;2023-07-31T03:37:13;20.50;99.90
74869;DHT22;63419;42.262;12.210;2023-07-31T03:39:39;20.50;99.90
74869;DHT22;63419;42.262;12.210;2023-07-31T03:42:06;20.40;99.90
74869;DHT22;63419;42.262;12.210;2023-07-31T03:44:32;20.40;99.90
74869;DHT22;63419;42.262;12.210;2023-07-31T03:46:58;20.50;99.90
74869;DHT22;63419;42.262;12.210;2023-07-31T03:49:24;20.50;99.90
74869;DHT22;63419;42.262;12.210;2023-07-31T03:51:51;20.50;99.90
74869;DHT22;63419;42.262;12.210;2023-07-31T03:54:17;20.50;99.90
74869;DHT22;63419;42.262;12.210;2023-07-31T03:56:43;20.60;99.90
74869;DHT22;63419;42.262;12.210;2023-07-31T03:59:09;20.70;99.90
74869;DHT22;63419;42.262;12.210;2023-07-31T04:01:35;20.60;99.90
74869;DHT22;63419;42.262;12.210;2023-07-31T04:04:01;20.50;99.90
74869;DHT22;63419;42.262;12.210;2023-07-31T04:06:28;20.50;99.90
74869;DHT22;63419;42.262;12.210;2023-07-31T04:08:54;20.40;99.90
74869;DHT22;63419;42.262;12.210;2023-07-31T04:11:20;19.80;99.90
74869;DHT22;63419;42.262;12.210;2023-07-31T04:13:47;18.80;99.90
74869;DHT22;63419;42.262;12.210;2023-07-31T04:16:12;18.40;99.90
74869;DHT22;63419;42.262;12.210;2023-07-31T04:18:39;18.30;99.90
74869;DHT22;63419;42.262;12.210;2023-07-31T04:21:05;18.30;99.90
74869;DHT22;63419;42.262;12.210;2023-07-31T04:23:31;18.40;99.90
74869;DHT22;63419;42.262;12.210;2023-07-31T04:25:58;18.50;99.90
74869;DHT22;63419;42.262;12.210;2023-07-31T04:28:24;18.70;99.90
74869;DHT22;63419;42.262;12.210;2023-07-31T04:30:54;19.00;99.90
74869;DHT22;63419;42.262;12.210;2023-07-31T04:33:20;19.20;99.90
74869;DHT22;63419;42.262;12.210;2023-07-31T04:35:51;19.30;99.90
74869;DHT22;63419;42.262;12.210;2023-07-31T04:38:22;19.40;99.90
74869;DHT22;63419;42.262;12.210;2023-07-31T04:40:48;19.50;99.90
74869;DHT22;63419;42.262;12.210;2023-07-31T04:43:14;19.50;99.90
74869;DHT22;63419;42.262;12.210;2023-07-31T04:45:45;19.70;99.90
74869;DHT22;63419;42.262;12.210;2023-07-31T04:48:13;19.80;99.90
74869;DHT22;63419;42.262;12.210;2023-07-31T04:50:40;20.00;99.90
74869;DHT22;63419;42.262;12.210;2023-07-31T04:53:06;20.00;99.90
74869;DHT22;63419;42.262;12.210;2023-07-31T04:55:32;20.10;99.90
74869;DHT22;63419;42.262;12.210;2023-07-31T04:57:59;20.20;99.90
74869;DHT22;63419;42.262;12.210;2023-07-31T05:00:25;20.20;99.90
74869;DHT22;63419;42.262;12.210;2023-07-31T05:02:51;20.30;99.90
74869;DHT22;63419;42.262;12.210;2023-07-31T05:05:17;20.40;99.90
74869;DHT22;63419;42.262;12.210;2023-07-31T05:07:43;20.40;99.90
74869;DHT22;63419;42.262;12.210;2023-07-31T05:10:09;20.30;99.90
74869;DHT22;63419;42.262;12.210;2023-07-31T05:12:35;20.40;99.90
74869;DHT22;63419;42.262;12.210;2023-07-31T05:15:01;20.50;99.90
74869;DHT22;63419;42.262;12.210;2023-07-31T05:17:28;20.70;99.90
74869;DHT22;63419;42.262;12.210;2023-07-31T05:19:54;20.80;99.90
74869;DHT22;63419;42.262;12.210;2023-07-31T05:22:21;20.90;99.90
74869;DHT22;63419;42.262;12.210;2023-07-31T05:24:47;21.10;99.90
74869;DHT22;63419;42.262;12.210;2023-07-31T05:27:13;21.30;99.90
74869;DHT22;63419;42.262;12.210;2023-07-31T05:29:44;21.30;99.90
74869;DHT22;63419;42.262;12.210;2023-07-31T05:32:10;21.40;99.90
74869;DHT22;63419;42.262;12.210;2023-07-31T05:34:36;21.60;99.90
74869;DHT22;63419;42.262;12.210;2023-07-31T05:37:02;21.70;99.90
74869;DHT22;63419;42.262;12.210;2023-07-31T05:39:28;21.90;99.90
74869;DHT22;63419;42.262;12.210;2023-07-31T05:41:55;22.10;99.90
74869;DHT22;63419;42.262;12.210;2023-07-31T05:44:21;22.20;99.90
74869;DHT22;63419;42.262;12.210;2023-07-31T05:46:47;22.40;99.90
74869;DHT22;63419;42.262;12.210;2023-07-31T05:49:13;22.40;99.90
74869;DHT22;63419;42.262;12.210;2023-07-31T05:51:39;22.50;99.90
74869;DHT22;63419;42.262;12.210;2023-07-31T05:54:06;22.60;99.90
74869;DHT22;63419;42.262;12.210;2023-07-31T05:56:32;22.70;99.90
74869;DHT22;63419;42.262;12.210;2023-07-31T05:58:59;22.70;99.90
74869;DHT22;63419;42.262;12.210;2023-07-31T06:01:26;22.80;99.90
74869;DHT22;63419;42.262;12.210;2023-07-31T06:03:52;22.90;99.90
74869;DHT22;63419;42.262;12.210;2023-07-31T06:06:19;23.00;99.90
74869;DHT22;63419;42.262;12.210;2023-07-31T06:08:45;23.10;99.90
74869;DHT22;63419;42.262;12.210;2023-07-31T06:11:12;23.20;99.90
74869;DHT22;63419;42.262;12.210;2023-07-31T06:13:38;23.20;99.90
74869;DHT22;63419;42.262;12.210;2023-07-31T06:16:05;23.40;99.90
74869;DHT22;63419;42.262;12.210;2023-07-31T06:18:32;23.40;99.90
74869;DHT22;63419;42.262;12.210;2023-07-31T06:20:58;23.60;99.90
74869;DHT22;63419;42.262;12.210;2023-07-31T06:23:25;23.50;99.90
74869;DHT22;63419;42.262;12.210;2023-07-31T06:25:52;23.60;99.90
74869;DHT22;63419;42.262;12.210;2023-07-31T06:28:18;23.60;99.90
74869;DHT22;63419;42.262;12.210;2023-07-31T06:30:45;23.70;99.90
74869;DHT22;63419;42.262;12.210;2023-07-31T06:33:11;23.80;99.90
74869;DHT22;63419;42.262;12.210;2023-07-31T06:35:37;23.90;99.90
74869;DHT22;63419;42.262;12.210;2023-07-31T06:38:04;24.10;99.90
74869;DHT22;63419;42.262;12.210;2023-07-31T06:40:30;24.10;99.90
74869;DHT22;63419;42.262;12.210;2023-07-31T06:43:00;24.20;99.90
74869;DHT22;63419;42.262;12.210;2023-07-31T06:45:34;24.30;99.90
74869;DHT22;63419;42.262;12.210;2023-07-31T06:48:02;24.40;99.90
74869;DHT22;63419;42.262;12.210;2023-07-31T06:50:31;24.50;99.90
74869;DHT22;63419;42.262;12.210;2023-07-31T06:52:58;24.60;99.90
74869;DHT22;63419;42.262;12.210;2023-07-31T06:55:25;24.60;99.90
74869;DHT22;63419;42.262;12.210;2023-07-31T06:57:53;24.70;99.90
74869;DHT22;63419;42.262;12.210;2023-07-31T07:00:22;24.80;99.90
74869;DHT22;63419;42.262;12.210;2023-07-31T07:02:49;24.90;99.90
74869;DHT22;63419;42.262;12.210;2023-07-31T07:05:17;25.00;99.90
74869;DHT22;63419;42.262;12.210;2023-07-31T07:07:44;25.10;99.90
74869;DHT22;63419;42.262;12.210;2023-07-31T07:10:10;25.20;99.90
74869;DHT22;63419;42.262;12.210;2023-07-31T07:12:37;25.30;99.90
74869;DHT22;63419;42.262;12.210;2023-07-31T07:15:04;25.40;99.90
74869;DHT22;63419;42.262;12.210;2023-07-31T07:17:31;25.50;99.90
74869;DHT22;63419;42.262;12.210;2023-07-31T07:19:58;25.60;99.90
74869;DHT22;63419;42.262;12.210;2023-07-31T07:22:25;25.80;99.90
74869;DHT22;63419;42.262;12.210;2023-07-31T07:24:53;25.90;99.90
74869;DHT22;63419;42.262;12.210;2023-07-31T07:27:20;25.90;99.90
74869;DHT22;63419;42.262;12.210;2023-07-31T07:29:47;26.00;99.90
74869;DHT22;63419;42.262;12.210;2023-07-31T07:32:15;26.20;99.90
74869;DHT22;63419;42.262;12.210;2023-07-31T07:34:43;26.30;99.90
74869;DHT22;63419;42.262;12.210;2023-07-31T07:37:09;26.30;99.90
74869;DHT22;63419;42.262;12.210;2023-07-31T07:39:36;26.40;99.90
74869;DHT22;63419;42.262;12.210;2023-07-31T07:42:03;26.40;99.90
74869;DHT22;63419;42.262;12.210;2023-07-31T07:44:30;26.60;99.90
74869;DHT22;63419;42.262;12.210;2023-07-31T07:46:56;26.60;99.90
74869;DHT22;63419;42.262;12.210;2023-07-31T07:49:22;26.70;99.90
74869;DHT22;63419;42.262;12.210;2023-07-31T07:51:49;26.70;99.90
74869;DHT22;63419;42.262;12.210;2023-07-31T07:54:16;26.90;99.90
74869;DHT22;63419;42.262;12.210;2023-07-31T07:56:43;27.00;99.90
74869;DHT22;63419;42.262;12.210;2023-07-31T07:59:09;27.10;99.90
74869;DHT22;63419;42.262;12.210;2023-07-31T08:01:35;27.20;99.90
74869;DHT22;63419;42.262;12.210;2023-07-31T08:04:02;27.30;99.90
74869;DHT22;63419;42.262;12.210;2023-07-31T08:06:28;27.40;99.90
74869;DHT22;63419;42.262;12.210;2023-07-31T08:08:56;27.40;99.90
74869;DHT22;63419;42.262;12.210;2023-07-31T08:11:22;27.50;99.90
74869;DHT22;63419;42.262;12.210;2023-07-31T08:13:49;27.60;99.90
74869;DHT22;63419;42.262;12.210;2023-07-31T08:16:16;27.60;99.90
74869;DHT22;63419;42.262;12.210;2023-07-31T08:18:42;27.50;99.90
74869;DHT22;63419;42.262;12.210;2023-07-31T08:21:09;27.70;99.90
74869;DHT22;63419;42.262;12.210;2023-07-31T08:23:35;27.70;99.90
74869;DHT22;63419;42.262;12.210;2023-07-31T08:26:02;27.80;99.90
74869;DHT22;63419;42.262;12.210;2023-07-31T08:28:28;27.70;99.90
74869;DHT22;63419;42.262;12.210;2023-07-31T08:30:54;27.80;99.90
74869;DHT22;63419;42.262;12.210;2023-07-31T08:33:21;27.90;99.90
74869;DHT22;63419;42.262;12.210;2023-07-31T08:35:47;28.00;99.90
74869;DHT22;63419;42.262;12.210;2023-07-31T08:38:14;28.20;99.90
74869;DHT22;63419;42.262;12.210;2023-07-31T08:40:41;28.30;99.90
74869;DHT22;63419;42.262;12.210;2023-07-31T08:43:09;28.40;99.90
74869;DHT22;63419;42.262;12.210;2023-07-31T08:45:36;28.60;99.90
74869;DHT22;63419;42.262;12.210;2023-07-31T08:48:04;28.60;99.90
74869;DHT22;63419;42.262;12.210;2023-07-31T08:50:31;28.70;99.90
74869;DHT22;63419;42.262;12.210;2023-07-31T08:52:58;28.80;99.90
74869;DHT22;63419;42.262;12.210;2023-07-31T08:55:25;28.80;99.90
74869;DHT22;63419;42.262;12.210;2023-07-31T08:57:53;28.90;99.90
74869;DHT22;63419;42.262;12.210;2023-07-31T09:00:22;28.90;99.90
74869;DHT22;63419;42.262;12.210;2023-07-31T09:02:57;28.80;99.90
74869;DHT22;63419;42.262;12.210;2023-07-31T09:05:29;28.70;99.90
74869;DHT22;63419;42.262;12.210;2023-07-31T09:07:57;28.80;99.90
74869;DHT22;63419;42.262;12.210;2023-07-31T09:10:24;29.20;99.90
74869;DHT22;63419;42.262;12.210;2023-07-31T09:12:52;29.50;99.90
74869;DHT22;63419;42.262;12.210;2023-07-31T09:15:19;28.70;99.90
74869;DHT22;63419;42.262;12.210;2023-07-31T09:17:48;28.90;99.90
74869;DHT22;63419;42.262;12.210;2023-07-31T09:20:24;28.80;99.90
74869;DHT22;63419;42.262;12.210;2023-07-31T09:22:51;29.20;99.90
74869;DHT22;63419;42.262;12.210;2023-07-31T09:25:23;29.60;99.90
74869;DHT22;63419;42.262;12.210;2023-07-31T09:27:58;29.30;99.90
74869;DHT22;63419;42.262;12.210;2023-07-31T09:30:26;28.90;99.90
74869;DHT22;63419;42.262;12.210;2023-07-31T09:33:04;29.10;99.90
74869;DHT22;63419;42.262;12.210;2023-07-31T09:35:34;29.60;99.90
74869;DHT22;63419;42.262;12.210;2023-07-31T09:38:06;30.00;99.40
74869;DHT22;63419;42.262;12.210;2023-07-31T09:40:38;29.60;98.10
74869;DHT22;63419;42.262;12.210;2023-07-31T09:43:08;30.20;98.90
74869;DHT22;63419;42.262;12.210;2023-07-31T09:45:38;30.90;98.60
74869;DHT22;63419;42.262;12.210;2023-07-31T09:48:09;30.80;99.90
74869;DHT22;63419;42.262;12.210;2023-07-31T09:50:38;30.30;99.90
74869;DHT22;63419;42.262;12.210;2023-07-31T09:53:07;30.00;99.40
74869;DHT22;63419;42.262;12.210;2023-07-31T09:55:36;30.20;99.90
74869;DHT22;63419;42.262;12.210;2023-07-31T09:58:06;30.80;99.70
74869;DHT22;63419;42.262;12.210;2023-07-31T10:00:35;30.70;99.10
74869;DHT22;63419;42.262;12.210;2023-07-31T10:03:07;30.80;99.80
74869;DHT22;63419;42.262;12.210;2023-07-31T10:05:39;29.90;99.90
74869;DHT22;63419;42.262;12.210;2023-07-31T10:08:10;30.10;99.90
74869;DHT22;63419;42.262;12.210;2023-07-31T10:10:45;30.60;99.80
74869;DHT22;63419;42.262;12.210;2023-07-31T10:13:14;30.60;99.60
74869;DHT22;63419;42.262;12.210;2023-07-31T10:15:41;30.20;99.30
74869;DHT22;63419;42.262;12.210;2023-07-31T10:18:09;30.60;97.40
74869;DHT22;63419;42.262;12.210;2023-07-31T10:20:36;30.40;98.40
74869;DHT22;63419;42.262;12.210;2023-07-31T10:23:03;30.20;99.90
74869;DHT22;63419;42.262;12.210;2023-07-31T10:25:30;31.40;99.10
74869;DHT22;63419;42.262;12.210;2023-07-31T10:27:59;32.40;97.30
74869;DHT22;63419;42.262;12.210;2023-07-31T10:30:28;32.60;97.40
74869;DHT22;63419;42.262;12.210;2023-07-31T10:32:58;32.30;97.40
74869;DHT22;63419;42.262;12.210;2023-07-31T10:35:25;32.40;97.30
74869;DHT22;63419;42.262;12.210;2023-07-31T10:37:54;33.10;95.90
74869;DHT22;63419;42.262;12.210;2023-07-31T10:40:27;33.80;95.40
74869;DHT22;63419;42.262;12.210;2023-07-31T10:42:56;35.50;94.80
74869;DHT22;63419;42.262;12.210;2023-07-31T10:45:42;36.20;92.90
74869;DHT22;63419;42.262;12.210;2023-07-31T10:48:16;36.20;93.20
74869;DHT22;63419;42.262;12.210;2023-07-31T10:50:49;36.90;93.40
74869;DHT22;63419;42.262;12.210;2023-07-31T10:53:32;35.00;93.80
74869;DHT22;63419;42.262;12.210;2023-07-31T10:56:00;34.30;92.70
74869;DHT22;63419;42.262;12.210;2023-07-31T10:58:28;31.80;94.80
74869;DHT22;63419;42.262;12.210;2023-07-31T11:00:56;32.70;94.10
74869;DHT22;63419;42.262;12.210;2023-07-31T11:03:26;32.90;94.50
74869;DHT22;63419;42.262;12.210;2023-07-31T11:06:07;34.90;92.00
74869;DHT22;63419;42.262;12.210;2023-07-31T11:08:36;34.00;92.50
74869;DHT22;63419;42.262;12.210;2023-07-31T11:11:12;36.10;92.60
74869;DHT22;63419;42.262;12.210;2023-07-31T11:13:47;38.80;90.50
74869;DHT22;63419;42.262;12.210;2023-07-31T11:16:16;40.70;89.50
74869;DHT22;63419;42.262;12.210;2023-07-31T11:18:45;39.40;86.50
74869;DHT22;63419;42.262;12.210;2023-07-31T11:21:15;36.80;85.90
74869;DHT22;63419;42.262;12.210;2023-07-31T11:24:02;34.70;89.60
74869;DHT22;63419;42.262;12.210;2023-07-31T11:26:29;33.40;90.70
74869;DHT22;63419;42.262;12.210;2023-07-31T11:28:56;33.00;91.10
74869;DHT22;63419;42.262;12.210;2023-07-31T11:31:22;33.20;91.20
74869;DHT22;63419;42.262;12.210;2023-07-31T11:33:49;35.80;89.40
74869;DHT22;63419;42.262;12.210;2023-07-31T11:36:17;33.50;90.70
74869;DHT22;63419;42.262;12.210;2023-07-31T11:38:46;33.60;90.90
74869;DHT22;63419;42.262;12.210;2023-07-31T11:41:15;34.10;90.60
74869;DHT22;63419;42.262;12.210;2023-07-31T11:43:42;35.20;91.30
74869;DHT22;63419;42.262;12.210;2023-07-31T11:46:09;32.40;91.60
74869;DHT22;63419;42.262;12.210;2023-07-31T11:48:37;31.30;94.80
74869;DHT22;63419;42.262;12.210;2023-07-31T11:51:06;32.50;92.70
74869;DHT22;63419;42.262;12.210;2023-07-31T11:56:33;33.60;92.90
74869;DHT22;63419;42.262;12.210;2023-07-31T11:59:01;32.40;92.80
74869;DHT22;63419;42.262;12.210;2023-07-31T12:01:30;32.90;92.70
74869;DHT22;63419;42.262;12.210;2023-07-31T12:03:58;33.70;92.10
74869;DHT22;63419;42.262;12.210;2023-07-31T12:06:43;33.00;93.40
74869;DHT22;63419;42.262;12.210;2023-07-31T12:09:09;35.10;93.20
74869;DHT22;63419;42.262;12.210;2023-07-31T12:11:55;34.90;91.60
74869;DHT22;63419;42.262;12.210;2023-07-31T12:14:24;34.40;92.90
74869;DHT22;63419;42.262;12.210;2023-07-31T12:16:56;36.30;91.20
74869;DHT22;63419;42.262;12.210;2023-07-31T12:19:28;39.00;90.10
74869;DHT22;63419;42.262;12.210;2023-07-31T12:21:59;38.50;88.90
74869;DHT22;63419;42.262;12.210;2023-07-31T12:24:27;39.10;87.90
74869;DHT22;63419;42.262;12.210;2023-07-31T12:26:54;40.10;86.90
74869;DHT22;63419;42.262;12.210;2023-07-31T12:29:21;41.30;85.30
74869;DHT22;63419;42.262;12.210;2023-07-31T12:31:49;42.50;82.30
74869;DHT22;63419;42.262;12.210;2023-07-31T12:34:17;41.40;82.80
74869;DHT22;63419;42.262;12.210;2023-07-31T12:36:46;38.50;80.80
74869;DHT22;63419;42.262;12.210;2023-07-31T12:39:15;36.00;82.90
74869;DHT22;63419;42.262;12.210;2023-07-31T12:41:42;37.10;83.10
74869;DHT22;63419;42.262;12.210;2023-07-31T12:46:53;38.40;83.30
74869;DHT22;63419;42.262;12.210;2023-07-31T12:49:20;39.50;82.40
74869;DHT22;63419;42.262;12.210;2023-07-31T12:51:47;39.80;81.20
74869;DHT22;63419;42.262;12.210;2023-07-31T12:54:13;39.80;81.90
74869;DHT22;63419;42.262;12.210;2023-07-31T12:56:40;39.40;79.20
74869;DHT22;63419;42.262;12.210;2023-07-31T12:59:06;38.90;80.90
74869;DHT22;63419;42.262;12.210;2023-07-31T13:01:33;38.80;79.30
74869;DHT22;63419;42.262;12.210;2023-07-31T13:03:59;39.60;80.80
74869;DHT22;63419;42.262;12.210;2023-07-31T13:06:25;40.00;80.60
74869;DHT22;63419;42.262;12.210;2023-07-31T13:08:52;39.50;81.20
74869;DHT22;63419;42.262;12.210;2023-07-31T13:11:19;40.00;79.40
74869;DHT22;63419;42.262;12.210;2023-07-31T13:13:45;40.70;81.10
74869;DHT22;63419;42.262;12.210;2023-07-31T13:16:12;41.80;79.20
74869;DHT22;63419;42.262;12.210;2023-07-31T13:18:38;42.40;78.00
74869;DHT22;63419;42.262;12.210;2023-07-31T13:21:04;42.40;78.20
74869;DHT22;63419;42.262;12.210;2023-07-31T13:23:31;41.80;79.20
74869;DHT22;63419;42.262;12.210;2023-07-31T13:25:57;40.80;78.00
74869;DHT22;63419;42.262;12.210;2023-07-31T13:28:24;41.70;78.60
74869;DHT22;63419;42.262;12.210;2023-07-31T13:30:52;42.10;78.50
74869;DHT22;63419;42.262;12.210;2023-07-31T13:36:04;42.70;79.20
74869;DHT22;63419;42.262;12.210;2023-07-31T13:38:31;41.30;75.90
74869;DHT22;63419;42.262;12.210;2023-07-31T13:41:17;41.00;77.40
74869;DHT22;63419;42.262;12.210;2023-07-31T13:43:43;41.00;77.70
74869;DHT22;63419;42.262;12.210;2023-07-31T13:46:09;39.10;80.50
74869;DHT22;63419;42.262;12.210;2023-07-31T13:48:37;39.00;80.10
74869;DHT22;63419;42.262;12.210;2023-07-31T13:51:03;38.90;79.50
74869;DHT22;63419;42.262;12.210;2023-07-31T13:53:30;39.30;77.80
74869;DHT22;63419;42.262;12.210;2023-07-31T13:55:57;37.90;80.90
74869;DHT22;63419;42.262;12.210;2023-07-31T13:58:23;39.90;80.10
74869;DHT22;63419;42.262;12.210;2023-07-31T14:00:50;40.80;78.30
74869;DHT22;63419;42.262;12.210;2023-07-31T14:03:16;41.80;78.30
74869;DHT22;63419;42.262;12.210;2023-07-31T14:05:43;42.10;77.40
74869;DHT22;63419;42.262;12.210;2023-07-31T14:08:09;39.10;77.60
74869;DHT22;63419;42.262;12.210;2023-07-31T14:10:36;37.00;80.40
74869;DHT22;63419;42.262;12.210;2023-07-31T14:13:02;35.90;82.80
74869;DHT22;63419;42.262;12.210;2023-07-31T14:15:28;34.90;83.70
74869;DHT22;63419;42.262;12.210;2023-07-31T14:17:55;35.10;84.00
74869;DHT22;63419;42.262;12.210;2023-07-31T14:20:22;34.20;86.30
74869;DHT22;63419;42.262;12.210;2023-07-31T14:22:48;35.40;85.70
74869;DHT22;63419;42.262;12.210;2023-07-31T14:25:14;36.00;85.60
74869;DHT22;63419;42.262;12.210;2023-07-31T14:27:59;38.10;84.20
74869;DHT22;63419;42.262;12.210;2023-07-31T14:30:25;37.80;86.80
74869;DHT22;63419;42.262;12.210;2023-07-31T14:32:52;36.00;88.50
74869;DHT22;63419;42.262;12.210;2023-07-31T14:35:18;34.10;91.10
74869;DHT22;63419;42.262;12.210;2023-07-31T14:37:45;34.30;91.90
74869;DHT22;63419;42.262;12.210;2023-07-31T14:40:12;32.20;95.00
74869;DHT22;63419;42.262;12.210;2023-07-31T14:42:40;32.90;92.40
74869;DHT22;63419;42.262;12.210;2023-07-31T14:45:07;33.80;91.90
74869;DHT22;63419;42.262;12.210;2023-07-31T14:47:36;33.50;92.70
74869;DHT22;63419;42.262;12.210;2023-07-31T14:50:02;35.00;91.40
74869;DHT22;63419;42.262;12.210;2023-07-31T14:52:29;33.00;92.70
74869;DHT22;63419;42.262;12.210;2023-07-31T14:54:56;33.90;94.00
74869;DHT22;63419;42.262;12.210;2023-07-31T14:57:24;32.50;94.60
74869;DHT22;63419;42.262;12.210;2023-07-31T14:59:52;31.90;95.40
74869;DHT22;63419;42.262;12.210;2023-07-31T15:02:18;31.80;94.00
74869;DHT22;63419;42.262;12.210;2023-07-31T15:04:44;32.50;95.80
74869;DHT22;63419;42.262;12.210;2023-07-31T15:07:10;31.50;95.10
74869;DHT22;63419;42.262;12.210;2023-07-31T15:09:36;32.40;94.50
74869;DHT22;63419;42.262;12.210;2023-07-31T15:12:02;33.10;94.10
74869;DHT22;63419;42.262;12.210;2023-07-31T15:14:29;31.30;96.60
74869;DHT22;63419;42.262;12.210;2023-07-31T15:16:56;32.20;94.90
74869;DHT22;63419;42.262;12.210;2023-07-31T15:19:23;31.50;95.10
74869;DHT22;63419;42.262;12.210;2023-07-31T15:21:50;31.30;96.90
74869;DHT22;63419;42.262;12.210;2023-07-31T15:24:17;32.30;95.50
74869;DHT22;63419;42.262;12.210;2023-07-31T15:26:43;32.70;96.50
74869;DHT22;63419;42.262;12.210;2023-07-31T15:29:10;32.10;96.80
74869;DHT22;63419;42.262;12.210;2023-07-31T15:31:42;31.50;96.60
74869;DHT22;63419;42.262;12.210;2023-07-31T15:34:08;32.80;94.70
74869;DHT22;63419;42.262;12.210;2023-07-31T15:36:34;32.30;94.80